This is the latest recevied weather packets stored in our database for station/object VA7SHG-1. If no packets are shown the sender has not sent any weather packets the latest 10 day(s).
| Time | Temp. | Humidity | Pressure | Rain* | Wind** | Luminosity | Snow |
|---|---|---|---|---|---|---|---|
| 1777476945 | 13.33° C | 71% | 1027 hPa | 0 mm | - | 374 W/m² | - |
| 1777475723 | 12.78° C | 74% | 1027.1 hPa | 0 mm | - | 300 W/m² | - |
| 1777475117 | 13.33° C | 73% | 1027.1 hPa | 0 mm | - | 269 W/m² | - |
| 1777468524 | 9.44° C | 84% | 1026.6 hPa | 0 mm | - | 19 W/m² | - |
| 1777466124 | 10° C | 84% | 1026.4 hPa | 0 mm | - | 0 W/m² | - |
| 1777464316 | 10° C | 85% | 1026.3 hPa | 0 mm | - | 0 W/m² | - |
| 1777462524 | 10° C | 85% | 1026.2 hPa | 0 mm | - | 0 W/m² | - |
| 1777458316 | 9.44° C | 86% | 1026 hPa | 0 mm | - | 0 W/m² | - |
| 1777455324 | 9.44° C | 84% | 1025.9 hPa | 0 mm | - | 0 W/m² | - |
| 1777453516 | 9.44° C | 83% | 1025.8 hPa | 0 mm | - | 0 W/m² | - |
| 1777446316 | 11.67° C | 73% | 1025.4 hPa | 0 mm | - | 0 W/m² | - |
| 1777443325 | 12.22° C | 72% | 1025.3 hPa | 0 mm | - | 0 W/m² | - |
| 1777442124 | 12.78° C | 71% | 1025.2 hPa | 0 mm | - | 0 W/m² | - |
| 1777440925 | 12.78° C | 71% | 1025.1 hPa | 0 mm | - | 0 W/m² | - |
| 1777439724 | 12.78° C | 71% | 1025 hPa | 0 mm | - | 0 W/m² | - |
| 1777439117 | 12.78° C | 70% | 1024.9 hPa | 0 mm | - | 0 W/m² | - |
| 1777428925 | 13.89° C | 67% | 1023.8 hPa | 0 mm | - | 28 W/m² | - |
| 1777425916 | 13.89° C | 66% | 1023.7 hPa | 0 mm | - | 66 W/m² | - |
| 1777425344 | 13.89° C | 65% | 1023.7 hPa | 0 mm | - | 67 W/m² | - |
| 1777424125 | 14.44° C | 63% | 1023.7 hPa | 0 mm | - | 79 W/m² | - |
| 1777421116 | 15° C | 60% | 1023.2 hPa | 0 mm | - | 190 W/m² | - |
| 1777417516 | 15° C | 58% | 1023.1 hPa | 0 mm | - | 319 W/m² | - |
| 1777410926 | 14.44° C | 62% | 1023.4 hPa | 0 mm | - | 336 W/m² | - |
| 1777397723 | 12.22° C | 66% | 1023.1 hPa | 0 mm | - | 330 W/m² | - |
| 1777396524 | 12.22° C | 66% | 1023 hPa | 0 mm | - | 295 W/m² | - |
* Rain latest hour (hover to see other rain measurements)
** Current wind speed in m/s (hover to see current wind gust speed)